Flight Track Log - Related Links

Times and Time Zones

All times are in EDT time to prevent confusion due to time zone crossing. See the SKW5305 flight status page for this flight to view local times or setup timezone preferences in your user account.

Time Position Orientation Groundspeed Altitude Reporting Facility
EDT Latitude Longitude Course Direction KTS MPH feet Rate Location/Type
Thu 08:34:53 PM 47.4556 -122.3122 180° South 135 155 1,000  Level Seattle Center
Thu 08:36:00 PM 47.5047 -122.3214 353° North 161 185 4,000 2,766 Climbing Seattle Center
Thu 08:37:01 PM 47.5506 -122.3353 348° North 174 200 6,900 2,690 Climbing Seattle Center
Thu 08:37:56 PM 47.5958 -122.3564 343° North 199 229 9,200 2,257 Climbing Seattle Center
Thu 08:38:42 PM 47.5967 -122.4131 271° West 190 219 10,700 1,514 Climbing Seattle Center
Thu 08:39:43 PM 47.5497 -122.4622 215° Southwest 234 269 11,900 1,230 Climbing Seattle Center
Thu 08:40:00 PM 46.9791 -122.3858 180° South  Level Estimated
Thu 08:40:44 PM 47.4853 -122.4172 155° Southeast 258 297 13,200  Level Seattle Center
Thu 08:41:45 PM 47.4194 -122.3692 154° Southeast 269 310 14,500 885 Climbing Seattle Center
Thu 08:42:46 PM 47.3461 -122.3122 152° Southeast 279 321 15,000 246 Climbing Seattle Center
Thu 08:43:47 PM 47.2706 -122.3047 176° South 271 312 15,000  Level Seattle Center
Thu 08:44:48 PM 47.1942 -122.3056 180° South 275 316 15,000  Level Seattle Center
Thu 08:45:50 PM 47.1183 -122.3081 181° South 274 315 15,000  Level Seattle Center
Thu 08:46:51 PM 47.0431 -122.3083 180° South 271 312 15,000  Level Seattle Center
Thu 08:47:52 PM 46.9628 -122.3092 180° South 269 310 15,000  Level Seattle Center
Thu 08:48:53 PM 46.8881 -122.3136 182° South 268 308 15,000 -49 Level Seattle Center
Thu 08:49:54 PM 46.8136 -122.3211 184° South 268 308 14,900 -492 Descending Seattle Center
Thu 08:50:55 PM 46.7350 -122.3317 185° South 282 325 14,000 -738 Descending Seattle Center
Thu 08:51:56 PM 46.6564 -122.3453 187° South 285 328 13,400 -639 Descending Seattle Center
Thu 08:52:57 PM 46.5794 -122.3581 187° South 281 323 12,700 -689 Descending Seattle Center
Thu 08:53:58 PM 46.5022 -122.3692 186° South 282 325 12,000 -833 Descending Seattle Center
Thu 08:54:45 PM 46.4342 -122.3775 185° South 281 323 11,200 -917 Descending Seattle Center
Thu 08:55:10 PM 46.4006 -122.3822 186° South 283 326 10,900 -640 Descending Seattle Center
Thu 08:56:00 PM 46.3469 -122.3817 180° South 284 327 10,400 -486 Descending Seattle Center
Thu 08:57:01 PM 46.2697 -122.3867 183° South 282 325 10,000 -197 Descending Seattle Center
Thu 08:58:02 PM 46.1861 -122.3914 182° South 259 298 10,000 -443 Level Seattle Center
Thu 08:59:03 PM 46.1114 -122.4008 185° South 266 306 9,100 -984 Descending Seattle Center
Thu 09:00:04 PM 46.0308 -122.4211 190° South 294 338 8,000 -1,082 Descending Seattle Center
Thu 09:01:05 PM 45.9639 -122.4778 210° Southwest 285 328 6,900 -836 Descending Seattle Center
Thu 09:02:06 PM 45.8944 -122.5164 201° Southwest 274 315 6,300 -443 Descending Seattle Center
Thu 09:03:07 PM 45.8231 -122.5217 183° South 264 304 6,000 -443 Descending Seattle Center
Thu 09:04:08 PM 45.7600 -122.4767 154° Southeast 258 297 5,400 -934 Descending Seattle Center
Thu 09:05:09 PM 45.6931 -122.4347 156° South 260 299 4,100 -689 Descending Seattle Center
Thu 09:06:10 PM 45.6292 -122.3850 151° Southeast 263 303 4,000 -344 Descending Seattle Center
Thu 09:07:11 PM 45.5758 -122.3575 160° South 249 287 3,400 -590 Descending Seattle Center
Thu 09:08:12 PM 45.5308 -122.3986 213° Southwest 204 235 2,800 -590 Descending Seattle Center

Login

Don't have an account? Register now (free) for customized features, flight alerts, and more!